Merle K (Mudhole) Smith Airport Cordova US
ICAO: PACV
IATA:
Category: Medium
Scheduled Services:

Elevation: 54 ft
TransAlt. 18000 ft.

Airport Communications:
ANCHORAGE APP/DEP:133.6
ASOS:134.8
CTAF:123.6
JUNEAU RDO:122.2

PACV Zoom In..

Runways:

(A) RW 09 length 7500 ft width 150 ft
---- / hdg 95

(B) RW 16 length 1899 ft width 30 ft
---- / hdg 162

(C) RW 27 length 7500 ft width 150 ft
ILS 110.70 / hdg 275

(D) RW 34 length 1899 ft width 30 ft
---- / hdg 342

Location; PACV
Day. 19 / Time. 02.53 Zulu
* Altimeter: 30.20
* Temperature: 16° c. 60.8°f.
* Wind from: 220° Speed 06 kn.
Dewpoint: 12° c.
Visibility: 10 Statute Miles.
Clouds: Few 2800 ft.
Clouds: Few 2000 ft.

PACV 190253Z 22006KT 10SM FEW028 FEW200 16/12 A3020 RMK AO2 SLP228 T01610122 51004


Wind From 220°
Speed 06 kn.

 
 
jpsmedia.com for Web Design worldairports.se 2018   terms of use